createdAt,value
2018-09-22T00:00:25.076Z,63.80
2018-09-22T00:02:52.921Z,63.40
2018-09-22T00:05:20.709Z,64.60
2018-09-22T00:07:48.450Z,63.50
2018-09-22T00:10:16.209Z,63.60
2018-09-22T00:12:43.926Z,64.00
2018-09-22T00:15:11.875Z,62.90
2018-09-22T00:17:39.609Z,63.90
2018-09-22T00:20:07.477Z,64.90
2018-09-22T00:22:35.528Z,64.30
2018-09-22T00:25:03.352Z,64.10
2018-09-22T00:27:31.077Z,64.40
2018-09-22T00:29:58.809Z,64.50
2018-09-22T00:32:26.705Z,65.10
2018-09-22T00:34:54.424Z,62.80
2018-09-22T00:37:22.173Z,63.50
2018-09-22T00:39:49.928Z,65.10
2018-09-22T00:42:18.589Z,63.80
2018-09-22T00:44:46.343Z,63.20
2018-09-22T00:47:14.083Z,64.40
2018-09-22T00:49:41.850Z,63.30
2018-09-22T00:52:09.625Z,64.10
2018-09-22T00:54:37.404Z,64.60
2018-09-22T00:57:05.220Z,63.80
2018-09-22T00:59:32.989Z,64.50
2018-09-22T01:02:00.743Z,63.60
2018-09-22T01:04:28.703Z,64.50
2018-09-22T01:06:56.438Z,64.80
2018-09-22T01:09:24.176Z,64.70
2018-09-22T01:11:51.906Z,65.10
2018-09-22T01:14:19.693Z,66.10
2018-09-22T01:16:47.432Z,66.50
2018-09-22T01:19:15.321Z,68.00
2018-09-22T01:21:43.133Z,68.00
2018-09-22T01:24:10.889Z,67.80
2018-09-22T01:26:38.752Z,69.30
2018-09-22T01:29:06.601Z,69.00
2018-09-22T01:31:34.338Z,69.00
2018-09-22T01:34:02.129Z,69.80
2018-09-22T01:36:29.916Z,69.60
2018-09-22T01:38:57.717Z,70.90
2018-09-22T01:41:25.483Z,71.60
2018-09-22T01:43:53.288Z,72.10
2018-09-22T01:46:21.018Z,72.10
2018-09-22T01:48:48.748Z,73.70
2018-09-22T01:51:16.492Z,73.50
2018-09-22T01:53:44.282Z,73.30
2018-09-22T01:56:12.042Z,73.10
2018-09-22T01:58:39.751Z,73.90
2018-09-22T02:01:07.564Z,73.40
2018-09-22T02:03:35.289Z,74.40
2018-09-22T02:06:03.077Z,73.60
2018-09-22T02:08:30.820Z,73.40
2018-09-22T02:10:58.658Z,75.00
2018-09-22T02:13:26.500Z,74.20
2018-09-22T02:15:54.553Z,75.50
2018-09-22T02:18:22.269Z,75.80
2018-09-22T02:20:50.093Z,76.60
2018-09-22T02:23:17.869Z,76.40
2018-09-22T02:25:45.693Z,76.20
2018-09-22T02:28:13.460Z,76.00
2018-09-22T02:30:41.296Z,77.20
2018-09-22T02:33:09.064Z,76.70
2018-09-22T02:35:36.851Z,78.40
2018-09-22T02:38:04.607Z,77.00
2018-09-22T02:40:32.352Z,78.00
2018-09-22T02:43:00.113Z,78.30
2018-09-22T02:45:27.858Z,76.20
2018-09-22T02:47:55.601Z,77.30
2018-09-22T02:50:23.323Z,77.20
2018-09-22T02:52:51.177Z,77.80
2018-09-22T02:55:18.905Z,77.90
2018-09-22T02:57:46.651Z,78.00
2018-09-22T03:00:14.371Z,79.00
2018-09-22T03:02:42.180Z,79.50
2018-09-22T03:05:09.920Z,78.00
2018-09-22T03:07:37.695Z,78.20
2018-09-22T03:10:05.932Z,79.40
2018-09-22T03:12:33.730Z,78.20
2018-09-22T03:15:02.289Z,78.40
2018-09-22T03:17:30.056Z,78.50
2018-09-22T03:19:57.918Z,77.80
2018-09-22T03:22:25.648Z,77.40
2018-09-22T03:24:53.400Z,78.20
2018-09-22T03:27:21.143Z,79.10
2018-09-22T03:29:48.989Z,78.30
2018-09-22T03:32:16.752Z,78.00
2018-09-22T03:34:44.505Z,79.40
2018-09-22T03:37:12.297Z,78.60
2018-09-22T03:39:40.104Z,77.80
2018-09-22T03:42:07.905Z,78.60
2018-09-22T03:44:35.669Z,80.00
2018-09-22T03:47:03.439Z,79.90
2018-09-22T03:49:31.210Z,80.40
2018-09-22T03:51:59.068Z,80.60
2018-09-22T03:54:26.845Z,80.40
2018-09-22T03:56:54.593Z,81.30
2018-09-22T03:59:22.412Z,81.00
2018-09-22T04:01:50.173Z,81.00
2018-09-22T04:04:17.928Z,82.40
2018-09-22T04:06:45.676Z,83.10
2018-09-22T04:09:13.435Z,81.50
2018-09-22T04:11:41.201Z,81.50
2018-09-22T04:14:08.978Z,82.00
2018-09-22T04:16:36.745Z,81.80
2018-09-22T04:19:04.601Z,83.10
2018-09-22T04:21:32.402Z,82.50
2018-09-22T04:24:04.705Z,82.60
2018-09-22T04:26:32.444Z,82.50
2018-09-22T04:29:00.244Z,82.70
2018-09-22T04:31:28.042Z,82.30
2018-09-22T04:33:55.780Z,81.50
2018-09-22T04:36:23.546Z,82.00
2018-09-22T04:38:57.920Z,81.90
2018-09-22T04:41:25.699Z,83.80
2018-09-22T04:43:53.421Z,82.50
2018-09-22T04:46:21.176Z,84.60
2018-09-22T04:48:48.921Z,84.00
2018-09-22T04:51:16.715Z,83.50
2018-09-22T04:53:44.445Z,82.10
2018-09-22T04:56:12.184Z,82.70
2018-09-22T04:58:40.002Z,82.00
2018-09-22T05:01:07.739Z,83.40
2018-09-22T05:03:35.504Z,84.00
2018-09-22T05:06:03.271Z,83.50
2018-09-22T05:08:31.041Z,82.80
2018-09-22T05:10:58.816Z,83.30
2018-09-22T05:13:26.600Z,83.30
2018-09-22T05:15:54.397Z,81.80
2018-09-22T05:18:22.167Z,82.50
2018-09-22T05:20:49.908Z,83.50
2018-09-22T05:23:17.700Z,83.20
2018-09-22T05:25:45.495Z,83.00
2018-09-22T05:28:13.285Z,82.00
2018-09-22T05:30:41.123Z,83.70
2018-09-22T05:33:08.956Z,83.50
2018-09-22T05:35:36.705Z,83.50
2018-09-22T05:38:04.498Z,83.90
2018-09-22T05:40:32.290Z,84.60
2018-09-22T05:43:00.089Z,84.20
2018-09-22T05:45:27.907Z,83.40
2018-09-22T05:47:55.667Z,84.30
2018-09-22T05:50:23.658Z,83.40
2018-09-22T05:52:51.452Z,84.50
2018-09-22T05:55:19.231Z,83.80
2018-09-22T05:57:47.020Z,84.00
2018-09-22T06:00:14.812Z,84.10
2018-09-22T06:02:42.616Z,84.20
2018-09-22T06:05:10.371Z,83.60
2018-09-22T06:07:38.136Z,84.30
2018-09-22T06:10:06.007Z,85.50
2018-09-22T06:12:33.780Z,84.60
2018-09-22T06:15:01.531Z,84.80
2018-09-22T06:17:29.309Z,86.00
2018-09-22T06:19:57.073Z,85.70
2018-09-22T06:22:24.849Z,85.60
2018-09-22T06:24:52.625Z,83.30
2018-09-22T06:27:20.360Z,85.40
2018-09-22T06:29:48.132Z,83.60
2018-09-22T06:32:15.917Z,83.50
2018-09-22T06:34:43.692Z,84.80
2018-09-22T06:37:11.420Z,85.00
2018-09-22T06:39:39.207Z,85.60
2018-09-22T06:42:06.974Z,83.70
2018-09-22T06:44:34.708Z,83.70
2018-09-22T06:47:02.518Z,83.10
2018-09-22T06:49:30.250Z,83.10
2018-09-22T06:51:58.079Z,82.40
2018-09-22T06:54:25.819Z,82.30
2018-09-22T06:56:53.662Z,81.00
2018-09-22T06:59:21.410Z,81.50
2018-09-22T07:01:49.241Z,80.40
2018-09-22T07:04:16.968Z,80.60
2018-09-22T07:06:44.710Z,80.90
2018-09-22T07:09:12.465Z,80.00
2018-09-22T07:11:40.233Z,79.20
2018-09-22T07:14:07.989Z,79.80
2018-09-22T07:16:35.693Z,78.60
2018-09-22T07:19:03.469Z,78.20
2018-09-22T07:21:36.928Z,77.90
2018-09-22T07:24:04.712Z,77.60
2018-09-22T07:26:32.467Z,75.90
2018-09-22T07:29:00.254Z,77.20
2018-09-22T07:31:28.024Z,74.70
2018-09-22T07:33:55.789Z,76.10
2018-09-22T07:36:23.582Z,74.20
2018-09-22T07:38:51.404Z,73.20
2018-09-22T07:41:19.378Z,72.90
2018-09-22T07:43:47.102Z,72.10
2018-09-22T07:46:14.873Z,72.00
2018-09-22T07:48:42.645Z,72.40
2018-09-22T07:51:10.434Z,72.10
2018-09-22T07:53:38.513Z,70.50
2018-09-22T07:56:06.336Z,69.70
2018-09-22T07:58:34.079Z,69.10
2018-09-22T08:01:01.931Z,68.50
2018-09-22T08:03:29.844Z,67.40
2018-09-22T08:05:57.636Z,65.90
2018-09-22T08:08:25.461Z,64.40
2018-09-22T08:10:53.232Z,62.40
2018-09-22T08:13:21.011Z,62.30
2018-09-22T08:15:48.841Z,61.30
2018-09-22T08:18:16.655Z,59.90
2018-09-22T08:20:44.392Z,58.00
2018-09-22T08:23:12.157Z,58.40
2018-09-22T08:25:39.922Z,58.00
2018-09-22T08:28:07.796Z,56.50
2018-09-22T08:30:35.552Z,56.50
2018-09-22T08:33:03.329Z,58.60
2018-09-22T08:35:31.078Z,59.40
2018-09-22T08:37:58.852Z,58.20
2018-09-22T08:40:26.631Z,59.40
2018-09-22T08:42:54.405Z,59.20
2018-09-22T08:45:22.244Z,58.50
2018-09-22T08:47:50.057Z,58.20
2018-09-22T08:50:17.917Z,58.00
2018-09-22T08:52:45.721Z,58.60
2018-09-22T08:55:13.541Z,58.00
2018-09-22T08:57:41.337Z,57.60
2018-09-22T09:00:09.160Z,57.60
2018-09-22T09:02:37.001Z,53.00
2018-09-22T09:05:04.968Z,48.80
2018-09-22T09:07:32.694Z,47.00
2018-09-22T09:10:00.417Z,44.40
2018-09-22T09:12:28.274Z,41.70
2018-09-22T09:14:56.099Z,39.50
2018-09-22T09:17:23.884Z,39.20
2018-09-22T09:19:52.218Z,38.30
2018-09-22T09:22:19.968Z,35.00
2018-09-22T09:24:47.761Z,35.30
2018-09-22T09:27:15.536Z,33.50
2018-09-22T09:29:43.356Z,34.40
2018-09-22T09:32:11.202Z,33.50
2018-09-22T09:34:38.981Z,31.20
2018-09-22T09:37:07.458Z,31.80
2018-09-22T09:39:35.205Z,30.40
2018-09-22T09:42:02.975Z,30.10
2018-09-22T09:44:30.761Z,30.80
2018-09-22T09:46:58.532Z,32.00
2018-09-22T09:49:26.337Z,32.40
2018-09-22T09:51:54.073Z,34.60
2018-09-22T09:54:22.159Z,35.70
2018-09-22T09:56:49.567Z,36.60
2018-09-22T09:59:17.333Z,35.00
2018-09-22T10:01:45.093Z,36.50
2018-09-22T10:04:12.820Z,34.10
2018-09-22T10:06:40.525Z,33.40
2018-09-22T10:09:08.845Z,35.40
2018-09-22T10:11:36.601Z,34.80
2018-09-22T10:14:04.360Z,34.40
2018-09-22T10:16:32.144Z,35.10
2018-09-22T10:18:59.864Z,35.40
2018-09-22T10:21:27.630Z,35.90
2018-09-22T10:23:55.371Z,35.00
2018-09-22T10:26:23.123Z,33.70
2018-09-22T10:28:50.861Z,33.90
2018-09-22T10:31:18.597Z,35.50
2018-09-22T10:33:46.691Z,33.70
2018-09-22T10:36:14.481Z,34.40
2018-09-22T10:38:42.303Z,34.10
2018-09-22T10:41:10.101Z,36.00
2018-09-22T10:43:37.830Z,35.80
2018-09-22T10:46:05.668Z,36.20
2018-09-22T10:48:33.585Z,36.70
2018-09-22T10:51:01.775Z,36.00
2018-09-22T10:53:29.615Z,36.30
2018-09-22T10:55:57.365Z,37.00
2018-09-22T10:58:25.100Z,39.50
2018-09-22T11:00:52.883Z,39.80
2018-09-22T11:03:21.377Z,40.60
2018-09-22T11:05:49.237Z,40.90
2018-09-22T11:08:17.126Z,41.10
2018-09-22T11:10:44.955Z,40.00
2018-09-22T11:13:13.084Z,39.70
2018-09-22T11:15:41.369Z,40.00
2018-09-22T11:18:09.152Z,40.80
2018-09-22T11:20:37.943Z,41.50
2018-09-22T11:23:05.756Z,40.70
2018-09-22T11:25:33.536Z,41.20
2018-09-22T11:28:01.290Z,40.90
2018-09-22T11:30:29.195Z,40.30
2018-09-22T11:32:56.927Z,40.70
2018-09-22T11:35:24.660Z,41.00
2018-09-22T11:37:52.425Z,39.60
2018-09-22T11:40:20.176Z,38.70
2018-09-22T11:42:47.945Z,37.90
2018-09-22T11:45:16.037Z,38.70
2018-09-22T11:47:43.778Z,39.10
2018-09-22T11:50:18.927Z,38.40
2018-09-22T11:52:46.684Z,38.10
2018-09-22T11:55:30.750Z,37.00
2018-09-22T11:57:59.477Z,34.90
2018-09-22T12:00:27.614Z,34.70
2018-09-22T12:02:56.031Z,33.20
2018-09-22T12:05:23.912Z,32.10
2018-09-22T12:07:52.129Z,33.10
2018-09-22T12:10:19.993Z,33.20
2018-09-22T12:12:47.754Z,33.70
2018-09-22T12:15:15.521Z,35.40
2018-09-22T12:17:43.318Z,36.50
2018-09-22T12:20:11.140Z,36.00
2018-09-22T12:22:38.960Z,34.50
2018-09-22T12:25:06.900Z,35.10
2018-09-22T12:27:34.753Z,32.60
2018-09-22T12:30:02.621Z,31.70
2018-09-22T12:32:30.378Z,31.60
2018-09-22T12:34:58.437Z,31.70
2018-09-22T12:37:26.338Z,31.50
2018-09-22T12:39:54.149Z,31.20
2018-09-22T12:42:21.897Z,32.70
2018-09-22T12:44:49.629Z,32.00
2018-09-22T12:47:17.404Z,32.10
2018-09-22T12:49:45.254Z,31.70
2018-09-22T12:52:13.110Z,33.50
2018-09-22T12:54:40.959Z,34.40
2018-09-22T12:57:08.789Z,33.40
2018-09-22T12:59:36.652Z,33.60
2018-09-22T13:02:04.477Z,34.30
2018-09-22T13:04:32.308Z,34.70
2018-09-22T13:07:00.138Z,35.90
2018-09-22T13:09:27.906Z,36.20
2018-09-22T13:11:55.720Z,36.30
2018-09-22T13:14:23.512Z,38.90
2018-09-22T13:16:51.375Z,47.60
2018-09-22T13:19:22.111Z,54.20
2018-09-22T13:21:50.419Z,59.40
2018-09-22T13:24:18.381Z,67.40
2018-09-22T13:26:46.203Z,72.00
2018-09-22T13:29:14.553Z,75.70
2018-09-22T13:31:42.551Z,75.50
2018-09-22T13:34:10.371Z,76.40
2018-09-22T13:36:38.250Z,80.10
2018-09-22T13:39:11.019Z,88.40
2018-09-22T13:41:39.135Z,95.10
2018-09-22T13:44:07.141Z,97.30
2018-09-22T13:46:35.360Z,97.90
2018-09-22T13:49:03.412Z,99.90
2018-09-22T13:51:31.272Z,99.90
2018-09-22T13:53:59.261Z,99.90
2018-09-22T13:56:27.048Z,99.90
2018-09-22T13:58:54.818Z,99.90
2018-09-22T14:01:22.657Z,99.90
2018-09-22T14:03:50.471Z,99.90
2018-09-22T14:06:18.231Z,99.90
2018-09-22T14:08:46.045Z,99.90
2018-09-22T14:11:13.806Z,99.90
2018-09-22T14:13:41.607Z,99.90
2018-09-22T14:16:09.394Z,99.90
2018-09-22T14:18:43.360Z,99.90
2018-09-22T14:21:12.045Z,99.90
2018-09-22T14:23:39.755Z,99.90
2018-09-22T14:26:07.703Z,99.90
2018-09-22T14:28:35.430Z,99.90
2018-09-22T14:31:03.160Z,99.90
2018-09-22T14:33:32.527Z,99.90
2018-09-22T14:36:00.433Z,99.90
2018-09-22T14:38:28.160Z,99.90
2018-09-22T14:40:55.955Z,99.90
2018-09-22T14:43:23.733Z,99.90
2018-09-22T14:45:51.521Z,99.90
2018-09-22T14:48:19.265Z,99.90
2018-09-22T14:50:49.763Z,99.90
2018-09-22T14:53:20.917Z,99.90
2018-09-22T14:55:48.732Z,99.90
2018-09-22T14:58:16.592Z,99.90
2018-09-22T15:00:44.430Z,99.90
2018-09-22T15:03:12.166Z,99.90
2018-09-22T15:05:40.023Z,99.90
2018-09-22T15:08:07.800Z,99.90
2018-09-22T15:10:35.561Z,99.90
2018-09-22T15:13:03.430Z,99.90
2018-09-22T15:15:31.190Z,99.90
2018-09-22T15:17:59.034Z,99.90
2018-09-22T15:20:26.866Z,99.90
2018-09-22T15:22:54.738Z,99.90
2018-09-22T15:25:22.517Z,99.90
2018-09-22T15:27:50.252Z,99.90
2018-09-22T15:30:18.017Z,99.90
2018-09-22T15:32:45.778Z,99.90
2018-09-22T15:35:13.531Z,99.90
2018-09-22T15:37:41.317Z,99.90
2018-09-22T15:40:09.061Z,99.90
2018-09-22T15:42:37.224Z,99.90
2018-09-22T15:45:05.592Z,99.90
2018-09-22T15:47:33.352Z,99.90
2018-09-22T15:50:01.085Z,99.90
2018-09-22T15:52:28.884Z,99.90
2018-09-22T15:54:56.673Z,99.90
2018-09-22T15:57:24.392Z,99.90
2018-09-22T15:59:52.157Z,99.90
2018-09-22T16:02:19.925Z,99.90
2018-09-22T16:04:47.713Z,99.90
2018-09-22T16:07:15.484Z,99.90
2018-09-22T16:09:43.245Z,99.90
2018-09-22T16:12:11.009Z,99.90
2018-09-22T16:14:38.759Z,99.90
2018-09-22T16:17:06.529Z,99.90
2018-09-22T16:19:34.292Z,99.90
2018-09-22T16:22:02.033Z,99.90
2018-09-22T16:24:29.796Z,99.90
2018-09-22T16:26:57.534Z,99.90
2018-09-22T16:29:25.308Z,99.90
2018-09-22T16:31:53.104Z,99.90
2018-09-22T16:34:20.903Z,99.90
2018-09-22T16:36:48.636Z,99.90
2018-09-22T16:39:16.372Z,99.90
2018-09-22T16:41:44.177Z,99.90
2018-09-22T16:44:11.932Z,99.90
2018-09-22T16:46:39.724Z,99.90
2018-09-22T16:49:07.513Z,99.90
2018-09-22T16:51:35.263Z,99.90
2018-09-22T16:54:03.068Z,99.90
2018-09-22T16:56:30.865Z,99.90
2018-09-22T16:58:58.649Z,99.90
2018-09-22T17:01:26.430Z,99.90
2018-09-22T17:03:54.204Z,99.90
2018-09-22T17:06:21.984Z,99.90
2018-09-22T17:08:49.795Z,99.90
2018-09-22T17:11:17.556Z,99.90
2018-09-22T17:13:45.314Z,99.90
2018-09-22T17:16:13.427Z,99.90
2018-09-22T17:18:41.205Z,99.90
2018-09-22T17:21:09.048Z,99.90
2018-09-22T17:23:36.760Z,99.90
2018-09-22T17:26:04.640Z,99.90
2018-09-22T17:28:32.424Z,99.90
2018-09-22T17:31:00.165Z,99.90
2018-09-22T17:33:27.997Z,99.90
2018-09-22T17:35:55.719Z,99.90
2018-09-22T17:38:23.520Z,99.90
2018-09-22T17:40:51.284Z,99.90
2018-09-22T17:43:19.112Z,99.90
2018-09-22T17:45:46.845Z,99.90
2018-09-22T17:48:14.617Z,99.90
2018-09-22T17:50:42.471Z,99.90
2018-09-22T17:53:10.272Z,99.90
2018-09-22T17:55:38.008Z,99.90
2018-09-22T17:58:06.065Z,99.90
2018-09-22T18:00:33.819Z,99.90
2018-09-22T18:03:01.621Z,99.90
2018-09-22T18:05:29.492Z,99.90
2018-09-22T18:07:57.223Z,99.90
2018-09-22T18:10:24.997Z,99.90
2018-09-22T18:12:52.812Z,99.90
2018-09-22T18:15:20.838Z,99.90
2018-09-22T18:17:48.620Z,99.90
2018-09-22T18:20:16.360Z,99.90
2018-09-22T18:22:44.112Z,99.90
2018-09-22T18:25:11.899Z,99.90
2018-09-22T18:27:39.625Z,99.90
2018-09-22T18:30:07.356Z,99.90
2018-09-22T18:32:35.096Z,99.90
2018-09-22T18:35:03.491Z,99.90
2018-09-22T18:37:31.228Z,99.90
2018-09-22T18:39:58.954Z,99.90
2018-09-22T18:42:27.066Z,99.90
2018-09-22T18:44:54.885Z,99.90
2018-09-22T18:47:22.650Z,99.90
2018-09-22T18:49:50.397Z,99.90
2018-09-22T18:52:18.161Z,99.90
2018-09-22T18:54:45.959Z,99.90
2018-09-22T18:57:13.700Z,99.90
2018-09-22T18:59:41.469Z,99.90
2018-09-22T19:02:09.241Z,99.90
2018-09-22T19:04:37.018Z,99.90
2018-09-22T19:07:04.785Z,99.90
2018-09-22T19:09:32.578Z,99.90
2018-09-22T19:12:00.649Z,99.90
2018-09-22T19:14:32.868Z,99.90
2018-09-22T19:17:06.087Z,99.90
2018-09-22T19:20:37.206Z,99.90
2018-09-22T19:23:07.954Z,99.90
2018-09-22T19:25:38.830Z,99.90
2018-09-22T19:28:09.420Z,99.90
2018-09-22T19:30:40.946Z,99.90
2018-09-22T19:34:12.168Z,99.90
2018-09-22T19:36:51.107Z,99.90
2018-09-22T19:39:27.262Z,99.90
2018-09-22T19:44:06.777Z,99.90
2018-09-22T19:46:38.576Z,99.90
2018-09-22T19:49:24.732Z,99.90
2018-09-22T19:51:59.365Z,99.90
2018-09-22T19:54:27.165Z,99.90
2018-09-22T19:56:54.931Z,99.90
2018-09-22T19:59:22.702Z,99.90
2018-09-22T20:01:50.702Z,99.90
2018-09-22T20:04:18.464Z,99.90
2018-09-22T20:06:46.237Z,99.90
2018-09-22T20:09:13.996Z,99.90
2018-09-22T20:11:41.739Z,99.90
2018-09-22T20:14:09.511Z,99.90
2018-09-22T20:16:37.240Z,99.90
2018-09-22T20:19:05.026Z,99.90
2018-09-22T20:21:32.760Z,99.90
2018-09-22T20:24:00.580Z,99.90
2018-09-22T20:26:28.310Z,99.90
2018-09-22T20:28:56.147Z,99.90
2018-09-22T20:31:24.374Z,99.90
2018-09-22T20:33:52.149Z,99.90
2018-09-22T20:36:19.933Z,99.90
2018-09-22T20:38:47.662Z,99.90
2018-09-22T20:41:15.411Z,99.90
2018-09-22T20:43:43.128Z,99.90
2018-09-22T20:46:10.852Z,99.90
2018-09-22T20:48:38.592Z,99.90
2018-09-22T20:51:06.360Z,99.90
2018-09-22T20:53:34.115Z,99.90
2018-09-22T20:56:01.888Z,99.90
2018-09-22T20:58:29.840Z,99.90
2018-09-22T21:00:57.974Z,99.90
2018-09-22T21:03:25.741Z,99.90
2018-09-22T21:05:53.468Z,99.90
2018-09-22T21:08:21.232Z,99.90
2018-09-22T21:10:48.969Z,99.90
2018-09-22T21:13:16.722Z,99.90
2018-09-22T21:15:44.448Z,99.90
2018-09-22T21:18:12.192Z,99.90
2018-09-22T21:20:39.941Z,99.90
2018-09-22T21:23:07.704Z,99.90
2018-09-22T21:25:35.425Z,99.90
2018-09-22T21:28:03.489Z,99.90
2018-09-22T21:30:31.244Z,99.90
2018-09-22T21:32:58.943Z,99.90
2018-09-22T21:35:26.838Z,99.90
2018-09-22T21:37:54.608Z,99.90
2018-09-22T21:40:22.376Z,99.90
2018-09-22T21:42:50.089Z,99.90
2018-09-22T21:45:17.847Z,99.90
2018-09-22T21:47:45.579Z,99.90
2018-09-22T21:50:13.314Z,99.90
2018-09-22T21:52:41.048Z,99.90
2018-09-22T21:55:08.798Z,99.90
2018-09-22T21:57:36.549Z,99.90
2018-09-22T22:00:04.524Z,99.90
2018-09-22T22:02:32.273Z,99.90
2018-09-22T22:05:00.071Z,99.90
2018-09-22T22:07:27.837Z,99.90
2018-09-22T22:09:55.574Z,99.90
2018-09-22T22:12:23.309Z,99.90
2018-09-22T22:14:51.044Z,99.90
2018-09-22T22:17:18.809Z,99.90
2018-09-22T22:19:46.513Z,99.90
2018-09-22T22:22:14.714Z,99.90
2018-09-22T22:24:42.461Z,99.90
2018-09-22T22:27:10.635Z,99.90
2018-09-22T22:29:38.571Z,99.90
2018-09-22T22:32:06.404Z,99.90
2018-09-22T22:34:34.121Z,99.90
2018-09-22T22:37:01.940Z,99.90
2018-09-22T22:39:29.674Z,99.90
2018-09-22T22:41:57.381Z,99.90
2018-09-22T22:44:25.155Z,99.90
2018-09-22T22:46:52.840Z,99.90
2018-09-22T22:49:20.556Z,99.90
2018-09-22T22:51:48.299Z,99.90
2018-09-22T22:54:16.059Z,99.90
2018-09-22T22:56:43.777Z,99.90
2018-09-22T22:59:11.496Z,99.90
2018-09-22T23:01:39.208Z,99.90
2018-09-22T23:04:06.947Z,99.90
2018-09-22T23:06:34.661Z,99.90
2018-09-22T23:09:02.508Z,99.90
2018-09-22T23:11:30.219Z,99.90
2018-09-22T23:13:57.982Z,99.90
2018-09-22T23:16:25.725Z,99.90
2018-09-22T23:18:53.461Z,99.90
2018-09-22T23:21:21.221Z,99.90
2018-09-22T23:23:48.941Z,99.90
2018-09-22T23:26:16.668Z,99.90
2018-09-22T23:28:44.380Z,99.90
2018-09-22T23:31:12.136Z,99.90
2018-09-22T23:33:40.029Z,99.90
2018-09-22T23:36:07.748Z,99.90
2018-09-22T23:38:35.503Z,99.90
2018-09-22T23:41:03.256Z,99.90
2018-09-22T23:43:30.964Z,99.90
2018-09-22T23:45:58.714Z,99.90
2018-09-22T23:48:26.441Z,99.90
2018-09-22T23:50:54.174Z,99.90
2018-09-22T23:53:21.946Z,99.90
2018-09-22T23:55:49.669Z,99.90
2018-09-22T23:58:17.419Z,99.90
